Terminal Aerodrome Forecast
Issued by NWS

Home | Current Version | Previous Version | Text Only | Print | Product List | Glossary On
Versions: 1 2 3 4 5 6 7 8 9 10 11 12 13 14 15 16 17
929
FTUS43 KGRR 301725
TAFBTL
TAF
KBTL 301725Z 3018/3118 09008KT P6SM -RA OVC010
     FM302300 09012KT 3SM SHRA VCTS OVC008CB
     FM310100 08010KT 4SM -SHRA OVC003
     FM310500 07008KT 1 1/2SM -SHRA BR OVC003
     FM310900 05007KT 1SM -SHRA OVC003
     FM311400 03007KT 1/4SM -SHRA OVC003
     FM311500 03007KT 1/2SM -SHRA OVC003=

USA.gov is the U.S. government's official web portal to all federal, state and local government web resources and services.